Monticello, KY

11:09 AM EDT on April 29, 2017 (GMT -0400)
Wayne County

Weather History for KEKQ - August, 2013

Change the Weather History Date:

Friday, August 23, 2013

  Actual Average Record
Temperature  
Mean Temperature 73 °F -  
Max Temperature 83 °F 85 °F 102 °F (2007)
Min Temperature 63 °F 63 °F 50 °F (1956)
Cooling Degree Days 8    
Growing Degree Days 23 (Base 50)    
Moisture  
Dew Point 66 °F    
Average Humidity 94    
Maximum Humidity 100    
Minimum Humidity 61    
Precipitation  
Precipitation 0.00 in - - ()
Sea Level Pressure  
Sea Level Pressure 30.11 in    
Wind  
Wind Speed 0 mph (NNE)    
Max Wind Speed 14 mph    
Max Gust Speed -    
Visibility 3 miles    
Events Fog , Thunderstorm    
Averages and records for this station are not official NWS values.
T = Trace of Precipitation, MM = Missing Value Source: NWS Daily Summary

Daily Weather History Graph

Daily Weather History Graph

Search for Another Location

Airport or City:

Trip Planner

Search our weather history database for the weather conditions in past years. The results will help you decide how hot, cold, wet, or windy it might be!

Date:

Astronomy

Aug. 23, 2013 Rise Set
Actual Time 6:03 AM CDT 7:20 PM CDT
Civil Twilight 5:36 AM CDT 7:46 PM CDT
Nautical Twilight 5:03 AM CDT 8:19 PM CDT
Astronomical Twilight 4:30 AM CDT 8:52 PM CDT
Moon 8:45 PM CDT (8/23) 8:51 AM CDT (8/23)
Length of Visible Light 14h 10m
Length of Day
13h 16m
Waning Gibbous, 91% of the Moon is Illuminated
Aug 23
Waning Gibbous
Aug 28
Last Quarter
Sep 5
New
Sep 12
First Quarter
Sep 19
Full

Hourly Weather History & Observations

Time (CDT) Temp. Heat Index Dew Point Humidity Pressure Visibility Wind Dir Wind Speed Gust Speed Precip Events Conditions
12:05 AM 66.2 °F - 66.2 °F 100% 30.11 in 1.5 mi Calm Calm - N/A   Clear
12:20 AM 66.2 °F - 66.2 °F 100% 30.11 in 1.0 mi Calm Calm - N/A   Clear
12:40 AM 66.2 °F - 66.2 °F 100% 30.11 in 0.8 mi Calm Calm - N/A   Clear
12:56 AM 66.9 °F - 66.9 °F 100% 30.09 in 1.0 mi Calm Calm - N/A   Clear
12:58 AM 66.2 °F - 66.2 °F 100% 30.10 in 1.5 mi Calm Calm - N/A   Clear
1:07 AM 66.2 °F - 66.2 °F 100% 30.10 in 2.5 mi Calm Calm - N/A   Clear
1:27 AM 66.2 °F - 66.2 °F 100% 30.09 in 1.5 mi Calm Calm - N/A   Clear
1:35 AM 64.4 °F - 64.4 °F 100% 30.09 in 1.0 mi Calm Calm - N/A   Clear
1:37 AM 64.4 °F - 64.4 °F 100% 30.09 in 0.5 mi Calm Calm - N/A Fog Fog
1:56 AM 65.8 °F - 65.8 °F 100% 30.07 in 1.0 mi Calm Calm - N/A   Clear
2:05 AM 66.2 °F - 66.2 °F 100% 30.08 in 1.5 mi Calm Calm - N/A   Clear
2:20 AM 66.2 °F - 66.2 °F 100% 30.08 in 1.2 mi Calm Calm - N/A   Clear
2:38 AM 64.4 °F - 64.4 °F 100% 30.08 in 1.0 mi Calm Calm - N/A   Clear
2:56 AM 64.9 °F - 64.9 °F 100% 30.07 in 1.5 mi Calm Calm - N/A   Clear
3:07 AM 64.4 °F - 64.4 °F 100% 30.08 in 2.0 mi Calm Calm - N/A   Clear
3:18 AM 64.4 °F - 64.4 °F 100% 30.08 in 6.0 mi Calm Calm - N/A   Clear
3:24 AM 66.2 °F - 66.2 °F 100% 30.08 in 1.5 mi Calm Calm - N/A   Clear
3:26 AM 64.4 °F - 64.4 °F 100% 30.08 in 1.0 mi Calm Calm - N/A   Clear
3:28 AM 64.4 °F - 64.4 °F 100% 30.08 in 0.5 mi Calm Calm - N/A Fog Fog
3:37 AM 64.4 °F - 64.4 °F 100% 30.08 in 0.2 mi Calm Calm - N/A Fog Fog
3:45 AM 64.4 °F - 64.4 °F 100% 30.08 in 0.5 mi Calm Calm - N/A Fog Fog
3:56 AM 64.9 °F - 64.9 °F 100% 30.08 in 0.5 mi Calm Calm - N/A Fog Fog
4:07 AM 64.4 °F - 64.4 °F 100% 30.09 in 1.0 mi Calm Calm - N/A   Mist
4:09 AM 64.4 °F - 64.4 °F 100% 30.09 in 1.5 mi Calm Calm - N/A   Mostly Cloudy
4:17 AM 64.4 °F - 64.4 °F 100% 30.09 in 1.0 mi Calm Calm - N/A   Mist
4:21 AM 64.4 °F - 64.4 °F 100% 30.09 in 0.5 mi Calm Calm - N/A Fog Fog
4:34 AM 64.4 °F - 64.4 °F 100% 30.10 in 1.0 mi Calm Calm - N/A   Clear
4:45 AM 64.4 °F - 64.4 °F 100% 30.10 in 1.5 mi Calm Calm - N/A   Clear
4:56 AM 63.9 °F - 63.9 °F 100% 30.10 in 0.8 mi Calm Calm - N/A   Clear
5:03 AM 64.4 °F - 64.4 °F 100% 30.10 in 1.2 mi Calm Calm - N/A   Clear
5:06 AM 64.4 °F - 64.4 °F 100% 30.10 in 2.0 mi Calm Calm - N/A   Clear
5:18 AM 64.4 °F - 64.4 °F 100% 30.10 in 1.5 mi Calm Calm - N/A   Clear
5:31 AM 64.4 °F - 64.4 °F 100% 30.11 in 1.0 mi Calm Calm - N/A   Clear
5:56 AM 63.9 °F - 63.9 °F 100% 30.11 in 1.8 mi Calm Calm - N/A   Clear
6:09 AM 64.4 °F - 64.4 °F 100% 30.11 in 0.8 mi Calm Calm - N/A   Clear
6:12 AM 64.4 °F - 64.4 °F 100% 30.11 in 0.2 mi Calm Calm - N/A Fog Fog
6:22 AM 64.4 °F - 64.4 °F 100% 30.11 in 0.8 mi Calm Calm - N/A   Clear
6:25 AM 64.4 °F - 64.4 °F 100% 30.12 in 1.2 mi Calm Calm - N/A   Clear
6:35 AM 64.4 °F - 64.4 °F 100% 30.12 in 1.8 mi Calm Calm - N/A   Clear
6:42 AM 64.4 °F - 64.4 °F 100% 30.11 in 3.0 mi Calm Calm - N/A   Clear
6:56 AM 65.8 °F - 65.8 °F 100% 30.11 in 1.8 mi Calm Calm - N/A   Clear
7:06 AM 66.2 °F - 66.2 °F 100% 30.12 in 3.0 mi Calm Calm - N/A   Clear
7:56 AM 68.9 °F - 68.9 °F 100% 30.13 in 5.0 mi Calm Calm - N/A   Scattered Clouds
8:56 AM 73.9 °F - 73.9 °F 100% 30.12 in 6.0 mi Calm Calm - N/A   Clear
9:56 AM 79.9 °F - 70.9 °F 74% 30.13 in 10.0 mi NW 4.6 mph - N/A   Clear
10:56 AM 82.9 °F 87.5 °F 70.9 °F 67% 30.12 in 10.0 mi NNE 5.8 mph - N/A   Clear
11:29 AM 82.4 °F 87.2 °F 71.6 °F 70% 30.12 in 10.0 mi Calm Calm - N/A   Mostly Cloudy
11:45 AM 82.4 °F 88.2 °F 73.4 °F 74% 30.12 in 10.0 mi Variable 4.6 mph - N/A Thunderstorm Mostly Cloudy
11:56 AM 83.8 °F 89.2 °F 72.0 °F 67% 30.11 in 10.0 mi North 4.6 mph - N/A Thunderstorm Mostly Cloudy
12:28 PM 80.6 °F 82.7 °F 66.2 °F 61% 30.12 in 10.0 mi ENE 13.8 mph - N/A Thunderstorm Thunderstorm
12:44 PM 80.6 °F 82.7 °F 66.2 °F 61% 30.11 in 10.0 mi Calm Calm - N/A   Clear
12:56 PM 79.0 °F - 64.9 °F 62% 30.11 in 10.0 mi ENE 4.6 mph - N/A   Clear
1:56 PM 83.8 °F 88.6 °F 70.9 °F 65% 30.08 in 10.0 mi Variable 3.5 mph - N/A   Clear
2:56 PM 83.8 °F 88.6 °F 70.9 °F 65% 30.06 in 10.0 mi NNE 5.8 mph - N/A   Partly Cloudy
3:56 PM 82.9 °F 88.5 °F 72.9 °F 71% 30.05 in 8.0 mi Calm Calm - N/A   Partly Cloudy
4:56 PM 81.9 °F 86.0 °F 70.9 °F 69% 30.08 in 10.0 mi Calm Calm - N/A   Clear
5:56 PM 79.9 °F - 72.0 °F 77% 30.07 in 10.0 mi Calm Calm - N/A   Clear
6:56 PM 77.0 °F - 70.0 °F 79% 30.07 in 9.0 mi Calm Calm - N/A   Clear
7:56 PM 70.9 °F - 68.9 °F 93% 30.10 in 5.0 mi Calm Calm - N/A   Clear
8:56 PM 68.0 °F - 68.0 °F 100% 30.12 in 4.0 mi Calm Calm - N/A   Clear
9:12 PM 66.2 °F - 66.2 °F 100% 30.13 in 2.0 mi Calm Calm - N/A   Clear
9:56 PM 65.8 °F - 65.8 °F 100% 30.13 in 1.5 mi Calm Calm - N/A   Clear
10:03 PM 66.2 °F - 66.2 °F 100% 30.14 in 1.2 mi Calm Calm - N/A   Clear
10:15 PM 66.2 °F - 66.2 °F 100% 30.14 in 1.8 mi Calm Calm - N/A   Clear
10:23 PM 66.2 °F - 66.2 °F 100% 30.14 in 2.5 mi Calm Calm - N/A   Clear
10:34 PM 64.4 °F - 64.4 °F 100% 30.14 in 1.2 mi Calm Calm - N/A   Clear
10:42 PM 64.4 °F - 64.4 °F 100% 30.14 in 0.8 mi Calm Calm - N/A   Clear
10:47 PM 64.4 °F - 64.4 °F 100% 30.14 in 0.2 mi Calm Calm - N/A Fog Fog
10:56 PM 64.9 °F - 64.9 °F 100% 30.14 in 0.2 mi Calm Calm - N/A Fog Fog
11:06 PM 64.4 °F - 64.4 °F 100% 30.14 in 1.0 mi Calm Calm - N/A   Clear
11:17 PM 64.4 °F - 64.4 °F 100% 30.15 in 0.5 mi Calm Calm - N/A Fog Fog
11:29 PM 64.4 °F - 64.4 °F 100% 30.15 in 1.0 mi Calm Calm - N/A   Clear
11:38 PM 64.4 °F - 64.4 °F 100% 30.15 in 1.5 mi Calm Calm - N/A   Clear
11:44 PM 64.4 °F - 64.4 °F 100% 30.15 in 3.0 mi Calm Calm - N/A   Clear
11:56 PM 63.0 °F - 63.0 °F 100% 30.14 in 1.8 mi Calm Calm - N/A   Clear